Time;durP1;ratioP1;P1;durP2;ratioP2;P2;SDS_P1;SDS_P2;PMS_P1;PMS_P2;Temp;Humidity;BMP_temperature;BMP_pressure;BME280_temperature;BME280_humidity;BME280_pressure;Samples;Min_cycle;Max_cycle;Signal;HPM_P1;HPM_P2
2024/04/18 00:01:05;;;;;;;2.77;0.60;;;;;;;3.41;98.64;100639.59;5412240;26;20463;-65
2024/04/18 00:03:30;;;;;;;2.07;0.60;;;;;;;3.19;96.59;100635.09;5406097;26;20234;-65
2024/04/18 00:05:59;;;;;;;2.00;0.30;;;;;;;3.10;96.81;100647.31;5406251;26;20467;-65
2024/04/18 00:08:24;;;;;;;2.00;0.50;;;;;;;3.04;98.18;100646.41;5406222;26;20226;-65
2024/04/18 00:10:57;;;;;;;1.90;0.30;;;;;;;3.01;99.43;100651.47;5424199;26;20579;-65
2024/04/18 00:13:25;;;;;;;2.60;0.87;;;;;;;2.91;98.73;100648.66;5442851;26;20587;-65
2024/04/18 00:15:54;;;;;;;1.90;0.30;;;;;;;2.92;100.00;100650.28;5445504;26;20457;-65
2024/04/18 00:18:19;;;;;;;1.97;0.30;;;;;;;2.97;100.00;100645.00;5445549;26;20458;-65
2024/04/18 00:20:47;;;;;;;5.70;0.80;;;;;;;2.94;100.00;100648.19;5440309;26;20529;-65
2024/04/18 00:23:13;;;;;;;2.20;0.70;;;;;;;2.98;100.00;100651.97;5409548;26;20791;-65
2024/04/18 00:25:41;;;;;;;1.93;0.40;;;;;;;2.96;99.87;100654.06;5409585;26;20451;-66
2024/04/18 00:28:07;;;;;;;1.90;0.47;;;;;;;2.87;99.63;100651.03;5409537;26;20260;-65
2024/04/18 00:30:38;;;;;;;2.00;0.43;;;;;;;2.88;99.31;100651.81;5411613;26;20458;-66
2024/04/18 00:33:04;;;;;;;2.00;0.40;;;;;;;2.89;98.32;100656.94;5435178;26;20267;-65
2024/04/18 00:35:32;;;;;;;2.00;0.43;;;;;;;2.80;97.58;100655.75;5445263;26;20892;-65
2024/04/18 00:37:58;;;;;;;1.97;0.47;;;;;;;2.66;97.38;100657.19;5445218;26;20497;-66
2024/04/18 00:40:26;;;;;;;2.00;0.40;;;;;;;2.73;97.52;100663.16;5445135;26;20450;-66
2024/04/18 00:42:52;;;;;;;1.90;0.30;;;;;;;2.70;98.18;100663.63;5431624;26;20233;-66
2024/04/18 00:45:20;;;;;;;2.00;0.50;;;;;;;2.59;97.74;100660.00;5409318;26;20527;-66
2024/04/18 00:47:49;;;;;;;2.20;0.60;;;;;;;2.60;97.82;100669.66;5409347;26;20709;-66
2024/04/18 00:50:18;;;;;;;2.23;0.70;;;;;;;2.52;99.11;100664.72;5409354;26;20500;-66
2024/04/18 00:52:46;;;;;;;2.73;1.07;;;;;;;2.47;99.54;100668.13;5411464;26;20819;-66
2024/04/18 00:55:15;;;;;;;1.90;0.30;;;;;;;2.42;100.00;100667.25;5433026;26;21046;-66
2024/04/18 00:57:41;;;;;;;2.00;0.40;;;;;;;2.39;100.00;100662.38;5409376;26;20790;-66
2024/04/18 01:00:11;;;;;;;2.00;0.60;;;;;;;2.47;100.00;100673.47;5409203;26;20511;-66
2024/04/18 01:02:38;;;;;;;2.17;0.47;;;;;;;2.47;100.00;100676.16;5409600;26;20270;-66
2024/04/18 01:05:09;;;;;;;1.97;0.37;;;;;;;2.48;100.00;100675.13;5409192;26;20504;-66
2024/04/18 01:07:34;;;;;;;1.93;0.40;;;;;;;2.50;100.00;100680.22;5424283;26;20479;-66
2024/04/18 01:10:03;;;;;;;3.00;1.43;;;;;;;2.49;100.00;100679.41;5409018;26;20455;-66
2024/04/18 01:12:28;;;;;;;1.90;0.40;;;;;;;2.52;100.00;100676.25;5408979;26;20233;-66
2024/04/18 01:14:57;;;;;;;1.90;0.30;;;;;;;2.51;100.00;100681.81;5408928;26;20518;-66
2024/04/18 01:17:22;;;;;;;2.00;0.50;;;;;;;2.50;100.00;100678.34;5418203;26;20273;-66
2024/04/18 01:19:51;;;;;;;1.90;0.40;;;;;;;2.43;100.00;100679.56;5444954;26;20454;-66
2024/04/18 01:22:21;;;;;;;3.20;1.47;;;;;;;2.40;100.00;100675.53;5444566;26;20224;-66
2024/04/18 01:24:50;;;;;;;1.90;0.30;;;;;;;2.32;100.00;100680.47;5440942;26;20577;-66
2024/04/18 01:27:18;;;;;;;2.60;0.90;;;;;;;2.37;100.00;100678.66;5444642;26;20454;-66
2024/04/18 01:29:46;;;;;;;3.07;1.07;;;;;;;2.36;100.00;100682.41;5444600;26;20450;-66
2024/04/18 01:32:12;;;;;;;2.33;0.40;;;;;;;2.44;100.00;100683.88;5444630;26;20438;-66
2024/04/18 01:34:40;;;;;;;1.80;0.33;;;;;;;2.45;100.00;100682.81;5441626;26;20863;-66
2024/04/18 01:37:06;;;;;;;1.90;0.40;;;;;;;2.34;100.00;100683.69;5444035;26;20258;-66
2024/04/18 01:39:34;;;;;;;1.90;0.30;;;;;;;2.30;100.00;100685.22;5444405;26;20454;-66
2024/04/18 01:42:02;;;;;;;1.90;0.30;;;;;;;2.22;99.50;100681.94;5444363;26;20280;-66
2024/04/18 01:44:30;;;;;;;2.83;1.00;;;;;;;2.19;100.00;100686.94;5441457;26;20469;-66
2024/04/18 01:46:59;;;;;;;1.87;0.40;;;;;;;2.23;99.74;100683.53;5426345;26;20472;-66
2024/04/18 01:49:24;;;;;;;1.90;0.30;;;;;;;2.16;99.17;100682.88;5408458;26;20463;-66
2024/04/18 01:51:53;;;;;;;2.30;0.93;;;;;;;2.14;98.42;100694.88;5408513;26;20456;-66
2024/04/18 01:54:18;;;;;;;1.90;0.30;;;;;;;2.02;98.31;100695.75;5421401;26;20232;-65
2024/04/18 01:56:46;;;;;;;1.90;0.50;;;;;;;1.89;99.08;100700.59;5408460;26;20821;-65
2024/04/18 01:59:12;;;;;;;1.90;0.40;;;;;;;1.93;99.81;100699.06;5408413;26;20221;-65
2024/04/18 02:01:43;;;;;;;2.70;1.20;;;;;;;1.93;99.47;100694.53;5408415;26;20448;-66
2024/04/18 02:04:09;;;;;;;8.03;0.80;;;;;;;1.96;98.70;100699.41;5410314;26;20605;-65
2024/04/18 02:06:38;;;;;;;3.10;0.77;;;;;;;1.95;99.02;100696.97;5441999;26;20514;-66
2024/04/18 02:09:03;;;;;;;2.40;0.73;;;;;;;1.88;99.40;100698.97;5444051;26;20506;-65
2024/04/18 02:11:32;;;;;;;3.30;1.47;;;;;;;1.71;98.86;100697.06;5443921;26;20458;-66
2024/04/18 02:13:57;;;;;;;2.10;0.57;;;;;;;1.66;99.17;100698.84;5440938;26;20229;-66
2024/04/18 02:16:25;;;;;;;1.90;0.50;;;;;;;1.70;100.00;100706.13;5443621;26;20567;-66
2024/04/18 02:18:54;;;;;;;7.67;1.17;;;;;;;1.87;100.00;100705.38;5444054;26;20225;-66
2024/04/18 02:21:22;;;;;;;1.90;0.30;;;;;;;1.88;100.00;100705.13;5443895;26;20498;-66
2024/04/18 02:23:47;;;;;;;2.77;0.97;;;;;;;1.82;100.00;100703.44;5443795;26;20461;-66
2024/04/18 02:26:16;;;;;;;1.80;0.30;;;;;;;1.91;100.00;100709.19;5440706;26;21033;-66
2024/04/18 02:28:41;;;;;;;1.80;0.30;;;;;;;1.86;100.00;100714.41;5443835;26;20259;-66
2024/04/18 02:31:10;;;;;;;4.00;1.23;;;;;;;1.88;100.00;100710.47;5443636;26;20462;-66
2024/04/18 02:33:35;;;;;;;1.93;0.50;;;;;;;1.85;100.00;100720.81;5443705;26;20228;-66
2024/04/18 02:36:06;;;;;;;2.77;1.67;;;;;;;1.90;100.00;100724.38;5440450;26;20524;-66
2024/04/18 02:38:32;;;;;;;2.20;0.80;;;;;;;1.96;100.00;100730.66;5442716;26;20221;-66
2024/04/18 02:41:04;;;;;;;1.80;0.40;;;;;;;1.96;100.00;100726.09;5443635;26;20507;-66
2024/04/18 02:43:30;;;;;;;1.80;0.30;;;;;;;1.91;100.00;100731.38;5443423;26;20228;-66
2024/04/18 02:45:58;;;;;;;2.30;0.50;;;;;;;1.91;100.00;100728.69;5466783;20;20547;-66
2024/04/18 02:48:24;;;;;;;1.80;0.30;;;;;;;1.88;100.00;100733.69;5506613;26;20276;-67
2024/04/18 02:50:52;;;;;;;3.03;1.30;;;;;;;1.88;100.00;100731.84;5526919;26;20934;-67
2024/04/18 02:53:21;;;;;;;1.87;0.40;;;;;;;1.80;99.76;100731.41;5508500;26;20727;-68
2024/04/18 02:55:49;;;;;;;2.33;0.70;;;;;;;1.69;99.75;100731.22;5489980;26;20460;-67
2024/04/18 02:58:15;;;;;;;2.30;1.07;;;;;;;1.65;99.92;100730.06;5485213;26;20468;-67
2024/04/18 03:00:43;;;;;;;1.83;0.30;;;;;;;1.59;99.00;100732.88;5453435;26;20454;-66
2024/04/18 03:03:09;;;;;;;1.90;0.37;;;;;;;1.54;99.16;100738.94;5453398;26;20236;-66
2024/04/18 03:05:37;;;;;;;2.07;0.93;;;;;;;1.59;98.68;100741.69;5453189;26;20457;-66
2024/04/18 03:08:03;;;;;;;1.73;0.30;;;;;;;1.41;99.26;100733.84;5455533;26;20726;-66
2024/04/18 03:10:34;;;;;;;2.13;0.77;;;;;;;1.43;99.73;100735.25;5477346;26;20468;-66
2024/04/18 03:13:00;;;;;;;1.80;0.30;;;;;;;1.42;99.70;100740.84;5460137;26;20989;-66
2024/04/18 03:15:28;;;;;;;1.80;0.33;;;;;;;1.49;98.90;100746.84;5453211;26;20497;-66
2024/04/18 03:17:55;;;;;;;1.80;0.30;;;;;;;1.39;99.32;100735.97;5453076;26;20267;-66
2024/04/18 03:20:23;;;;;;;1.90;0.50;;;;;;;1.40;99.96;100750.94;5455763;26;20470;-66
2024/04/18 03:22:49;;;;;;;1.80;0.30;;;;;;;1.38;100.00;100748.50;5453020;26;21008;-67
2024/04/18 03:25:17;;;;;;;1.87;0.43;;;;;;;1.48;99.84;100746.03;5452913;26;20510;-66
2024/04/18 03:27:46;;;;;;;1.80;0.30;;;;;;;1.51;99.44;100744.75;5452788;26;20266;-67
2024/04/18 03:30:14;;;;;;;1.90;0.50;;;;;;;1.56;99.79;100752.88;5454915;26;20518;-67
2024/04/18 03:32:40;;;;;;;9.47;1.43;;;;;;;1.57;99.33;100754.47;5452917;26;20830;-66
2024/04/18 03:35:09;;;;;;;2.00;0.70;;;;;;;1.40;100.00;100761.59;5452407;26;20517;-68
2024/04/18 03:37:37;;;;;;;1.90;0.43;;;;;;;1.38;100.00;100756.50;5452746;26;20449;-66
2024/04/18 03:40:06;;;;;;;1.80;0.30;;;;;;;1.41;100.00;100764.03;5454665;26;20514;-66
2024/04/18 03:42:35;;;;;;;3.10;2.63;;;;;;;1.34;100.00;100759.88;5457078;26;20472;-67
2024/04/18 03:45:06;;;;;;;1.80;0.30;;;;;;;1.36;100.00;100763.94;5488863;26;20460;-68
2024/04/18 03:47:32;;;;;;;2.50;1.13;;;;;;;1.36;100.00;100765.78;5489028;26;21032;-67
2024/04/18 03:50:00;;;;;;;1.80;0.30;;;;;;;1.45;99.34;100765.19;5492543;26;20451;-67
2024/04/18 03:52:27;;;;;;;2.73;1.37;;;;;;;1.44;99.10;100771.56;5482574;26;20270;-68
2024/04/18 03:54:55;;;;;;;1.80;0.40;;;;;;;1.37;99.84;100764.72;5456217;26;20453;-67
2024/04/18 03:57:21;;;;;;;2.67;0.67;;;;;;;1.31;100.00;100771.81;5456269;26;20965;-67
2024/04/18 03:59:49;;;;;;;1.90;0.47;;;;;;;1.36;100.00;100773.78;5456128;26;20491;-67
2024/04/18 04:02:17;;;;;;;1.80;0.40;;;;;;;1.35;100.00;100777.50;5458171;26;20228;-67
2024/04/18 04:04:48;;;;;;;2.30;0.77;;;;;;;1.33;100.00;100777.75;5456156;26;20458;-67
2024/04/18 04:07:13;;;;;;;2.00;0.60;;;;;;;1.40;100.00;100774.94;5456035;26;20809;-67
2024/04/18 04:09:41;;;;;;;2.00;0.77;;;;;;;1.45;100.00;100780.38;5455880;26;20513;-67
2024/04/18 04:12:07;;;;;;;2.97;1.27;;;;;;;1.39;100.00;100781.34;5455875;26;20252;-67
2024/04/18 04:14:36;;;;;;;1.90;0.67;;;;;;;1.36;100.00;100789.78;5473366;26;21046;-67
2024/04/18 04:17:01;;;;;;;1.80;0.30;;;;;;;1.38;100.00;100785.88;5455777;26;20453;-67
2024/04/18 04:19:32;;;;;;;1.80;0.40;;;;;;;1.41;100.00;100793.38;5455911;26;20504;-67
2024/04/18 04:21:58;;;;;;;2.10;0.67;;;;;;;1.43;100.00;100795.84;5455832;26;20220;-67
2024/04/18 04:24:26;;;;;;;2.30;0.63;;;;;;;1.50;100.00;100799.16;5461316;26;20521;-67
2024/04/18 04:26:52;;;;;;;1.80;0.30;;;;;;;1.42;100.00;100803.03;5492250;26;20555;-67
2024/04/18 04:29:20;;;;;;;1.80;0.30;;;;;;;1.46;100.00;100806.00;5492524;26;20501;-67
2024/04/18 04:31:46;;;;;;;1.80;0.30;;;;;;;1.37;100.00;100797.56;5491998;26;20211;-67
2024/04/18 04:34:14;;;;;;;1.80;0.30;;;;;;;1.38;100.00;100804.53;5490820;26;20827;-65
2024/04/18 04:36:43;;;;;;;3.23;1.27;;;;;;;1.51;100.00;100808.81;5466627;26;20298;-65
2024/04/18 04:39:11;;;;;;;2.00;0.67;;;;;;;1.60;100.00;100799.41;5455861;26;20510;-65
2024/04/18 04:41:37;;;;;;;2.63;0.60;;;;;;;1.64;100.00;100813.91;5455951;26;20509;-65
2024/04/18 04:44:05;;;;;;;3.67;2.20;;;;;;;1.73;100.00;100820.50;5455841;26;20818;-65
2024/04/18 04:46:30;;;;;;;1.70;0.30;;;;;;;1.72;99.95;100826.03;5467762;26;20606;-65
2024/04/18 04:48:59;;;;;;;2.10;0.60;;;;;;;1.58;99.76;100825.50;5455588;26;20454;-66
2024/04/18 04:51:24;;;;;;;1.83;0.50;;;;;;;1.65;99.73;100828.06;5455818;26;20589;-66
2024/04/18 04:53:55;;;;;;;1.70;0.40;;;;;;;1.68;100.00;100823.06;5455513;26;20458;-67
2024/04/18 04:56:21;;;;;;;1.80;0.30;;;;;;;1.73;100.00;100825.81;5471494;26;20603;-66
2024/04/18 04:58:49;;;;;;;1.80;0.40;;;;;;;1.82;100.00;100836.13;5457168;26;20462;-66
2024/04/18 05:01:15;;;;;;;2.50;1.00;;;;;;;1.78;100.00;100835.78;5454159;26;20228;-66
2024/04/18 05:03:43;;;;;;;2.60;1.50;;;;;;;1.75;100.00;100837.06;5468759;26;20468;-66
2024/04/18 05:06:09;;;;;;;1.80;0.40;;;;;;;1.78;100.00;100843.81;5491827;26;20223;-66
2024/04/18 05:08:37;;;;;;;3.60;1.37;;;;;;;1.88;100.00;100841.34;5491861;26;20931;-66
2024/04/18 05:11:05;;;;;;;2.50;1.23;;;;;;;1.99;100.00;100853.84;5476425;26;20232;-66
2024/04/18 05:13:33;;;;;;;1.90;0.60;;;;;;;2.07;100.00;100852.63;5485223;26;20532;-67
2024/04/18 05:15:59;;;;;;;1.80;0.30;;;;;;;2.16;100.00;100853.06;5491705;26;20984;-66
2024/04/18 05:18:27;;;;;;;2.87;1.47;;;;;;;2.26;100.00;100858.63;5491672;26;20512;-68
2024/04/18 05:20:53;;;;;;;1.90;0.50;;;;;;;2.38;100.00;100869.25;5491215;26;20335;-68
2024/04/18 05:23:21;;;;;;;1.80;0.30;;;;;;;2.45;100.00;100865.38;5473380;26;20718;-67
2024/04/18 05:25:47;;;;;;;1.80;0.30;;;;;;;2.49;100.00;100871.06;5490525;26;20220;-67
2024/04/18 05:28:29;;;;;;;2.87;1.07;;;;;;;2.63;100.00;100869.72;5490566;26;20528;-68
2024/04/18 05:31:01;;;;;;;1.90;0.43;;;;;;;2.78;100.00;100872.63;5475331;26;20236;-67
2024/04/18 05:33:29;;;;;;;1.80;0.40;;;;;;;2.90;100.00;100875.25;5414554;26;20584;-67
2024/04/18 05:35:58;;;;;;;1.80;0.40;;;;;;;3.00;100.00;100874.59;5417922;26;20803;-67
2024/04/18 05:38:26;;;;;;;2.83;0.60;;;;;;;3.01;100.00;100884.22;5450314;26;20465;-67
2024/04/18 05:40:55;;;;;;;1.80;0.30;;;;;;;3.14;100.00;100886.59;5454804;26;20981;-68
2024/04/18 05:43:26;;;;;;;1.80;0.40;;;;;;;3.16;100.00;100889.84;5454591;26;20474;-66
2024/04/18 05:45:55;;;;;;;2.57;0.90;;;;;;;3.21;100.00;100891.78;5454537;26;20465;-66
2024/04/18 05:48:23;;;;;;;1.87;0.47;;;;;;;3.35;100.00;100902.97;5486639;26;21055;-67
2024/04/18 05:50:51;;;;;;;2.00;0.70;;;;;;;3.45;100.00;100906.63;5490745;26;20498;-66
2024/04/18 05:53:19;;;;;;;4.20;0.70;;;;;;;3.53;100.00;100913.41;5490819;26;20484;-66
2024/04/18 05:55:48;;;;;;;1.90;0.50;;;;;;;3.62;100.00;100919.16;5487827;26;20456;-66
2024/04/18 05:58:16;;;;;;;1.90;0.40;;;;;;;3.68;100.00;100919.00;5490317;26;20523;-67
2024/04/18 06:00:47;;;;;;;2.00;0.70;;;;;;;3.73;100.00;100921.75;5490482;26;20599;-67
2024/04/18 06:03:16;;;;;;;1.80;0.40;;;;;;;3.73;100.00;100921.75;5490702;26;20464;-67
2024/04/18 06:05:44;;;;;;;3.60;0.60;;;;;;;3.89;100.00;100916.56;5490584;26;20451;-68
2024/04/18 06:08:12;;;;;;;2.10;0.90;;;;;;;3.97;100.00;100921.50;5490566;26;20464;-68
2024/04/18 06:10:40;;;;;;;1.80;0.40;;;;;;;4.08;100.00;100920.59;5481504;26;20509;-67
2024/04/18 06:13:09;;;;;;;1.80;0.30;;;;;;;4.19;100.00;100925.00;5470015;26;20524;-67
2024/04/18 06:15:37;;;;;;;1.90;0.40;;;;;;;4.27;100.00;100916.50;5490577;26;20517;-67
2024/04/18 06:18:08;;;;;;;1.90;0.40;;;;;;;4.44;100.00;100926.38;5490431;26;20452;-68
2024/04/18 06:20:41;;;;;;;1.90;0.40;;;;;;;4.52;100.00;100932.09;5490326;26;20468;-68
2024/04/18 06:23:10;;;;;;;1.90;0.30;;;;;;;4.62;100.00;100931.38;5490271;26;21046;-67
2024/04/18 06:25:38;;;;;;;1.90;0.30;;;;;;;4.76;100.00;100932.59;5456902;26;20465;-67
2024/04/18 06:28:12;;;;;;;2.07;0.60;;;;;;;4.94;100.00;100935.97;5453998;26;20445;-70
2024/04/18 06:30:40;;;;;;;2.20;0.50;;;;;;;5.13;100.00;100931.84;5453886;26;20544;-67
2024/04/18 06:33:11;;;;;;;1.97;0.30;;;;;;;5.35;100.00;100939.00;5453867;26;20474;-68
2024/04/18 06:35:39;;;;;;;1.90;0.30;;;;;;;5.50;99.59;100939.13;5453868;26;20457;-67
2024/04/18 06:38:08;;;;;;;2.20;0.40;;;;;;;5.60;99.09;100946.44;5453747;26;20465;-67
2024/04/18 06:40:37;;;;;;;2.30;0.93;;;;;;;5.69;97.94;100943.00;5489914;26;20476;-67
2024/04/18 06:43:05;;;;;;;1.90;0.40;;;;;;;5.75;97.36;100952.69;5490043;26;20476;-68
2024/04/18 06:45:34;;;;;;;1.97;0.40;;;;;;;5.81;96.92;100954.38;5487293;26;20460;-68
2024/04/18 06:48:02;;;;;;;2.00;0.50;;;;;;;5.81;96.55;100959.75;5489978;26;20452;-67
2024/04/18 06:50:33;;;;;;;1.93;0.30;;;;;;;5.86;95.37;100956.28;5489970;26;20449;-67
2024/04/18 06:53:01;;;;;;;1.97;0.30;;;;;;;5.96;95.97;100959.03;5489841;26;20512;-67
2024/04/18 06:55:30;;;;;;;3.27;1.00;;;;;;;6.02;94.47;100960.69;5485945;26;20472;-68
2024/04/18 06:57:58;;;;;;;2.00;0.30;;;;;;;6.08;95.06;100961.53;5461430;26;20464;-67
2024/04/18 07:00:27;;;;;;;2.10;0.50;;;;;;;6.14;94.51;100971.22;5454924;26;20506;-67
2024/04/18 07:02:56;;;;;;;2.10;0.50;;;;;;;6.12;92.41;100968.00;5481900;26;20482;-67
2024/04/18 07:05:24;;;;;;;2.00;0.30;;;;;;;6.23;92.70;100972.34;5489752;26;20512;-67
2024/04/18 07:07:56;;;;;;;2.20;0.63;;;;;;;6.34;92.35;100973.22;5475199;26;20849;-67
2024/04/18 07:10:24;;;;;;;2.73;0.77;;;;;;;6.43;92.31;100974.31;5466631;26;20521;-67
2024/04/18 07:12:53;;;;;;;2.10;0.50;;;;;;;6.48;91.53;100978.91;5481701;26;20472;-67
2024/04/18 07:15:21;;;;;;;2.40;0.67;;;;;;;6.62;89.75;100981.91;5475427;26;20469;-67
2024/04/18 07:17:52;;;;;;;2.10;0.40;;;;;;;6.73;90.15;100978.16;5465845;26;21013;-67
2024/04/18 07:20:20;;;;;;;2.00;0.40;;;;;;;6.76;88.63;100978.44;5489479;26;20456;-67
2024/04/18 07:22:48;;;;;;;2.10;0.50;;;;;;;6.85;88.68;100981.44;5489364;26;20472;-67
2024/04/18 07:25:19;;;;;;;2.10;0.53;;;;;;;6.86;87.95;100982.22;5489267;26;20873;-69
2024/04/18 07:27:48;;;;;;;2.20;0.40;;;;;;;6.96;88.15;100983.06;5493003;26;20516;-69
2024/04/18 07:30:16;;;;;;;2.30;0.63;;;;;;;7.11;86.87;100990.38;5492980;26;20455;-68
2024/04/18 07:32:44;;;;;;;2.33;0.47;;;;;;;7.13;83.71;100988.22;5492821;26;20479;-69
2024/04/18 07:35:13;;;;;;;2.53;0.50;;;;;;;7.21;82.43;100990.38;5492845;26;20448;-68
2024/04/18 07:37:41;;;;;;;2.10;0.40;;;;;;;7.33;82.34;100996.31;5492853;26;20455;-68
2024/04/18 07:40:14;;;;;;;2.30;0.70;;;;;;;7.38;80.73;100992.81;5487058;26;20470;-70
2024/04/18 07:42:48;;;;;;;2.17;0.40;;;;;;;7.43;77.73;100992.78;5456286;26;20474;-68
2024/04/18 07:45:17;;;;;;;2.30;0.60;;;;;;;7.53;78.20;101000.91;5456219;26;21059;-68
2024/04/18 07:47:47;;;;;;;2.20;0.47;;;;;;;7.67;77.61;101000.34;5456232;26;20976;-70
2024/04/18 07:50:16;;;;;;;2.23;0.57;;;;;;;7.75;77.26;100999.81;5456160;26;20469;-69
2024/04/18 07:52:44;;;;;;;3.17;0.83;;;;;;;7.84;76.78;101003.56;5456116;26;20478;-68
2024/04/18 07:55:14;;;;;;;2.43;0.60;;;;;;;7.90;74.73;101001.66;5456183;26;20453;-68
2024/04/18 07:57:45;;;;;;;2.37;0.70;;;;;;;7.96;74.07;101003.25;5456742;26;20475;-67
2024/04/18 08:00:14;;;;;;;2.30;0.60;;;;;;;8.02;72.85;100999.50;5457620;26;20518;-67
2024/04/18 08:02:43;;;;;;;2.20;0.60;;;;;;;8.03;72.23;101014.59;5492447;26;20513;-68
2024/04/18 08:05:12;;;;;;;2.10;0.40;;;;;;;8.03;67.73;101017.28;5492414;26;20508;-68
2024/04/18 08:07:40;;;;;;;2.20;0.50;;;;;;;8.07;69.88;101016.47;5492381;26;20573;-71
2024/04/18 08:10:08;;;;;;;2.03;0.30;;;;;;;8.19;70.62;101018.03;5492480;26;20448;-70
2024/04/18 08:12:36;;;;;;;2.23;0.50;;;;;;;8.21;68.78;101021.28;5492381;26;20480;-68
2024/04/18 08:15:08;;;;;;;2.20;0.60;;;;;;;8.21;66.53;101011.28;5471142;26;20517;-68
2024/04/18 08:17:37;;;;;;;2.50;0.80;;;;;;;8.31;67.90;101019.34;5456033;26;20457;-68
2024/04/18 08:20:06;;;;;;;2.73;1.00;;;;;;;8.37;69.30;101016.66;5455878;26;20458;-68
2024/04/18 08:22:34;;;;;;;2.30;0.53;;;;;;;8.42;68.07;101025.56;5455797;26;20608;-68
2024/04/18 08:25:06;;;;;;;2.30;0.50;;;;;;;8.52;65.24;101012.03;5456043;26;20461;-68
2024/04/18 08:27:31;;;;;;;2.10;0.40;;;;;;;8.56;65.07;101015.00;5455736;26;20980;-67
2024/04/18 08:29:59;;;;;;;2.00;0.30;;;;;;;8.54;63.92;101019.84;5469651;26;20519;-67
2024/04/18 08:32:31;;;;;;;2.20;0.40;;;;;;;8.62;65.09;101023.88;5455558;26;20694;-66
2024/04/18 08:34:59;;;;;;;2.50;0.60;;;;;;;8.67;64.28;101018.44;5454150;26;20454;-66
2024/04/18 08:37:27;;;;;;;2.70;0.50;;;;;;;8.73;63.13;101023.56;5455643;26;20454;-67
2024/04/18 08:39:55;;;;;;;2.20;0.40;;;;;;;8.90;61.41;101019.66;5455569;26;20977;-66
2024/04/18 08:42:25;;;;;;;2.20;0.50;;;;;;;9.01;59.94;101016.63;5455485;26;20510;-67
2024/04/18 08:44:55;;;;;;;2.17;0.53;;;;;;;9.16;59.27;101017.63;5460776;20;20515;-64
2024/04/18 08:47:25;;;;;;;2.10;0.40;;;;;;;9.37;57.99;101018.28;5409395;26;20512;-67
2024/04/18 08:49:57;;;;;;;3.30;0.67;;;;;;;9.36;58.50;101012.06;5409321;26;20873;-67
2024/04/18 08:52:26;;;;;;;2.40;0.60;;;;;;;9.38;58.71;101019.91;5416299;26;20573;-69
2024/04/18 08:54:55;;;;;;;3.53;0.70;;;;;;;9.32;56.36;101033.44;5409381;26;20942;-68
2024/04/18 08:57:27;;;;;;;2.60;0.70;;;;;;;9.21;55.07;101018.41;5409368;26;20986;-67
2024/04/18 09:00:01;;;;;;;2.10;0.40;;;;;;;9.19;55.91;101017.06;5408964;26;20521;-67
2024/04/18 09:02:29;;;;;;;2.60;0.97;;;;;;;9.48;55.48;101014.44;5378697;26;20480;-67
2024/04/18 09:05:00;;;;;;;2.80;1.20;;;;;;;9.79;55.79;101015.78;5373905;26;20469;-67
2024/04/18 09:07:29;;;;;;;2.73;0.90;;;;;;;9.97;54.92;101005.31;5374263;26;20465;-67
2024/04/18 09:10:05;;;;;;;2.30;0.50;;;;;;;10.08;54.61;101012.22;5373790;26;20457;-67
2024/04/18 09:12:34;;;;;;;3.07;0.80;;;;;;;10.17;54.46;101015.09;5373846;26;20582;-67
2024/04/18 09:15:02;;;;;;;4.20;0.77;;;;;;;10.16;54.97;101018.91;5373732;26;20453;-67
2024/04/18 09:17:31;;;;;;;2.93;0.80;;;;;;;10.22;54.28;101018.56;5375693;26;21079;-67
2024/04/18 09:20:03;;;;;;;2.20;0.50;;;;;;;10.16;53.39;101024.34;5373734;26;20509;-67
2024/04/18 09:22:31;;;;;;;2.30;0.50;;;;;;;10.05;52.85;101018.22;5373654;26;20469;-69
2024/04/18 09:25:00;;;;;;;2.07;0.40;;;;;;;10.07;54.16;101018.75;5366453;26;20477;-67
2024/04/18 09:27:25;;;;;;;2.30;0.50;;;;;;;10.14;55.95;101021.09;5373601;26;20465;-67
2024/04/18 09:29:54;;;;;;;2.30;0.50;;;;;;;10.02;54.31;101021.50;5408641;26;20577;-67
2024/04/18 09:32:22;;;;;;;2.50;0.60;;;;;;;9.98;52.15;101017.75;5408893;26;20268;-67
2024/04/18 09:34:53;;;;;;;2.10;0.40;;;;;;;10.11;53.88;101023.28;5378629;26;20480;-67
2024/04/18 09:37:29;;;;;;;2.57;0.50;;;;;;;10.05;53.95;101021.75;5373677;26;20528;-67
2024/04/18 09:39:59;;;;;;;2.10;0.47;;;;;;;10.09;51.30;101014.66;5373238;26;20820;-67
2024/04/18 09:42:40;;;;;;;2.10;0.40;;;;;;;10.24;51.92;101016.41;5373400;26;20472;-67
2024/04/18 09:45:14;;;;;;;3.47;0.70;;;;;;;10.09;51.61;101019.25;5373201;26;20464;-67
2024/04/18 09:47:43;;;;;;;3.03;0.70;;;;;;;10.07;51.63;101016.03;5372437;26;20991;-67
2024/04/18 09:50:12;;;;;;;2.10;0.50;;;;;;;10.04;51.79;101022.00;5375185;26;20508;-67
2024/04/18 09:52:47;;;;;;;2.50;0.67;;;;;;;10.09;53.38;101019.25;5372768;26;20538;-67
2024/04/18 09:55:18;;;;;;;2.03;0.40;;;;;;;10.22;54.24;101017.75;5373187;26;20479;-67
2024/04/18 09:57:47;;;;;;;2.47;0.70;;;;;;;10.41;55.91;101015.16;5373169;26;20517;-67
2024/04/18 10:00:17;;;;;;;2.50;0.70;;;;;;;10.54;55.45;101026.09;5373165;26;20514;-67
2024/04/18 10:02:50;;;;;;;2.30;0.50;;;;;;;10.53;54.94;101024.47;5372961;26;20532;-68
2024/04/18 10:05:19;;;;;;;4.57;0.40;;;;;;;10.52;55.35;101028.25;5385807;26;20527;-67
2024/04/18 10:07:51;;;;;;;2.10;0.47;;;;;;;10.65;53.12;101037.59;5407937;26;20488;-68
2024/04/18 10:10:21;;;;;;;2.30;0.53;;;;;;;10.68;54.27;101042.44;5408345;26;20894;-68
2024/04/18 10:12:49;;;;;;;2.07;0.40;;;;;;;10.76;53.75;101030.97;5408282;26;20524;-67
2024/04/18 10:15:19;;;;;;;2.03;0.40;;;;;;;10.76;51.74;101028.25;5408285;26;20456;-68
2024/04/18 10:17:48;;;;;;;2.17;0.53;;;;;;;10.76;53.09;101039.09;5408268;26;20568;-68
2024/04/18 10:20:17;;;;;;;2.10;0.50;;;;;;;10.80;53.25;101034.72;5405413;26;20591;-68
2024/04/18 10:22:45;;;;;;;2.27;0.50;;;;;;;10.88;53.85;101033.22;5389212;26;20477;-68
2024/04/18 10:25:26;;;;;;;2.30;0.40;;;;;;;11.07;53.65;101034.06;5356812;26;20465;-68
2024/04/18 10:27:54;;;;;;;2.10;0.40;;;;;;;11.10;51.95;101041.59;5359661;26;20555;-67
2024/04/18 10:30:25;;;;;;;7.23;0.60;;;;;;;10.92;52.50;101036.97;5358618;26;21039;-67
2024/04/18 10:32:55;;;;;;;2.40;0.70;;;;;;;10.66;52.45;101028.38;5368286;26;20481;-67
2024/04/18 10:35:26;;;;;;;2.40;0.83;;;;;;;10.58;53.78;101032.53;5372705;26;21044;-69
2024/04/18 10:37:57;;;;;;;2.20;0.50;;;;;;;10.49;53.51;101033.44;5389600;26;21021;-64
2024/04/18 10:40:28;;;;;;;3.27;0.70;;;;;;;10.19;53.63;101043.53;5398884;26;20552;-66
2024/04/18 10:43:08;;;;;;;2.13;0.40;;;;;;;9.86;54.15;101045.19;5372473;26;20524;-66
2024/04/18 10:45:39;;;;;;;2.10;0.50;;;;;;;9.59;55.72;101051.91;5372597;26;20992;-67
2024/04/18 10:48:08;;;;;;;6.00;0.60;;;;;;;9.39;56.78;101043.16;5370747;26;20488;-67
2024/04/18 10:50:37;;;;;;;2.53;0.73;;;;;;;9.33;59.68;101048.56;5372651;26;20513;-67
2024/04/18 10:53:06;;;;;;;2.00;0.40;;;;;;;9.34;61.65;101039.41;5372192;26;20552;-67
2024/04/18 10:55:37;;;;;;;2.07;0.30;;;;;;;9.32;62.11;101043.47;5372382;26;20517;-67
2024/04/18 10:58:06;;;;;;;2.60;0.63;;;;;;;9.37;63.02;101035.31;5370588;26;20988;-67
2024/04/18 11:00:34;;;;;;;2.30;0.50;;;;;;;9.33;61.22;101040.47;5372780;26;20525;-67
2024/04/18 11:03:02;;;;;;;2.10;0.40;;;;;;;9.44;61.15;101032.31;5372216;26;20468;-68
2024/04/18 11:05:32;;;;;;;2.07;0.40;;;;;;;9.63;60.32;101038.63;5372146;26;20448;-67
2024/04/18 11:08:00;;;;;;;2.73;0.70;;;;;;;9.83;56.68;101037.66;5371951;26;20449;-67
2024/04/18 11:10:29;;;;;;;2.20;0.53;;;;;;;10.18;56.54;101033.78;5399648;26;20520;-66
2024/04/18 11:13:01;;;;;;;2.10;0.40;;;;;;;10.57;56.29;101022.78;5407173;26;20475;-66
2024/04/18 11:15:28;;;;;;;2.63;0.70;;;;;;;10.97;55.72;101033.38;5404452;26;20472;-68
2024/04/18 11:17:56;;;;;;;2.03;0.30;;;;;;;11.29;54.79;101030.75;5407207;26;20532;-67
2024/04/18 11:20:25;;;;;;;2.13;0.47;;;;;;;11.53;52.42;101029.84;5407159;26;20452;-67
2024/04/18 11:22:55;;;;;;;2.30;0.50;;;;;;;11.71;50.23;101036.31;5393613;26;20533;-67
2024/04/18 11:25:24;;;;;;;2.10;0.40;;;;;;;11.90;52.00;101030.84;5404487;26;20475;-67
2024/04/18 11:27:53;;;;;;;2.40;0.73;;;;;;;12.08;50.87;101035.41;5358277;26;20518;-67
2024/04/18 11:30:25;;;;;;;2.30;0.50;;;;;;;12.12;49.52;101031.00;5384909;26;20476;-67
2024/04/18 11:32:54;;;;;;;2.10;0.40;;;;;;;12.27;48.34;101027.19;5371742;26;20477;-68
2024/04/18 11:35:22;;;;;;;2.17;0.53;;;;;;;12.37;48.58;101032.44;5391625;26;20511;-68